createdAt,value
2022-09-27T00:00:09.769Z,10.89
2022-09-27T00:01:05.087Z,10.89
2022-09-27T00:02:00.293Z,10.89
2022-09-27T00:02:55.408Z,10.86
2022-09-27T00:03:50.357Z,10.78
2022-09-27T00:04:45.455Z,10.77
2022-09-27T00:05:40.544Z,10.77
2022-09-27T00:06:40.606Z,10.75
2022-09-27T00:07:31.902Z,10.72
2022-09-27T00:08:25.982Z,10.71
2022-09-27T00:09:23.236Z,10.70
2022-09-27T00:10:18.257Z,10.68
2022-09-27T00:11:13.370Z,10.65
2022-09-27T00:12:08.417Z,10.65
2022-09-27T00:13:03.453Z,10.61
2022-09-27T00:13:58.443Z,10.60
2022-09-27T00:14:53.472Z,10.60
2022-09-27T00:15:48.579Z,10.61
2022-09-27T00:16:43.621Z,10.60
2022-09-27T00:17:38.614Z,10.55
2022-09-27T00:18:33.848Z,10.53
2022-09-27T00:19:29.124Z,10.48
2022-09-27T00:20:24.370Z,10.47
2022-09-27T00:21:19.728Z,10.48
2022-09-27T00:22:14.758Z,10.49
2022-09-27T00:23:09.872Z,10.48
2022-09-27T00:24:05.264Z,10.48
2022-09-27T00:25:00.279Z,10.48
2022-09-27T00:25:55.397Z,10.52
2022-09-27T00:26:50.687Z,10.49
2022-09-27T00:27:45.780Z,10.44
2022-09-27T00:28:40.908Z,10.42
2022-09-27T00:29:36.117Z,10.35
2022-09-27T00:30:31.199Z,10.31
2022-09-27T00:31:26.621Z,10.26
2022-09-27T00:32:21.653Z,10.26
2022-09-27T00:33:16.784Z,10.20
2022-09-27T00:34:11.906Z,10.22
2022-09-27T00:35:07.178Z,10.24
2022-09-27T00:36:02.424Z,10.27
2022-09-27T00:36:57.512Z,10.28
2022-09-27T00:37:52.743Z,10.25
2022-09-27T00:38:47.915Z,10.22
2022-09-27T00:39:43.191Z,10.19
2022-09-27T00:40:38.476Z,10.22
2022-09-27T00:41:33.574Z,10.23
2022-09-27T00:42:28.841Z,10.16
2022-09-27T00:43:23.985Z,10.10
2022-09-27T00:44:19.105Z,10.10
2022-09-27T00:45:14.354Z,10.08
2022-09-27T00:46:09.460Z,10.07
2022-09-27T00:47:04.582Z,10.06
2022-09-27T00:47:59.973Z,10.07
2022-09-27T00:48:55.101Z,10.08
2022-09-27T00:49:50.229Z,10.10
2022-09-27T00:50:45.368Z,10.10
2022-09-27T00:51:40.610Z,10.09
2022-09-27T00:52:35.995Z,10.05
2022-09-27T00:53:31.149Z,10.05
2022-09-27T00:54:26.367Z,10.02
2022-09-27T00:55:21.486Z,10.02
2022-09-27T00:56:16.628Z,10.00
2022-09-27T00:57:12.079Z,10.00
2022-09-27T00:58:07.070Z,10.02
2022-09-27T00:59:02.315Z,10.04
2022-09-27T00:59:57.465Z,9.99
2022-09-27T01:00:52.683Z,9.95
2022-09-27T01:01:47.814Z,9.93
2022-09-27T01:02:43.047Z,9.93
2022-09-27T01:03:38.001Z,9.94
2022-09-27T01:04:33.359Z,9.92
2022-09-27T01:05:28.421Z,9.88
2022-09-27T01:06:23.503Z,9.86
2022-09-27T01:07:18.583Z,9.82
2022-09-27T01:08:13.611Z,9.86
2022-09-27T01:09:08.750Z,9.84
2022-09-27T01:10:03.837Z,9.82
2022-09-27T01:10:58.920Z,9.86
2022-09-27T01:11:53.871Z,9.89
2022-09-27T01:12:49.122Z,9.90
2022-09-27T01:13:44.274Z,9.92
2022-09-27T01:14:39.379Z,9.93
2022-09-27T01:15:34.494Z,9.94
2022-09-27T01:16:29.588Z,9.97
2022-09-27T01:17:24.584Z,9.96
2022-09-27T01:18:19.632Z,9.95
2022-09-27T01:19:14.807Z,9.92
2022-09-27T01:20:09.785Z,9.88
2022-09-27T01:21:04.886Z,9.84
2022-09-27T01:21:59.968Z,9.80
2022-09-27T01:22:54.974Z,9.76
2022-09-27T01:23:50.051Z,9.74
2022-09-27T01:24:45.124Z,9.71
2022-09-27T01:25:40.143Z,9.71
2022-09-27T01:26:35.193Z,9.72
2022-09-27T01:27:30.237Z,9.73
2022-09-27T01:28:25.282Z,9.71
2022-09-27T01:29:20.378Z,9.70
2022-09-27T01:30:15.412Z,9.73
2022-09-27T01:31:10.719Z,9.71
2022-09-27T01:32:05.806Z,9.73
2022-09-27T01:33:02.252Z,9.71
2022-09-27T01:33:57.377Z,9.69
2022-09-27T01:34:53.266Z,9.71
2022-09-27T01:35:48.472Z,9.66
2022-09-27T01:36:43.587Z,9.64
2022-09-27T01:37:39.340Z,9.65
2022-09-27T01:38:34.521Z,9.68
2022-09-27T01:39:30.398Z,9.69
2022-09-27T01:40:25.585Z,9.68
2022-09-27T01:41:20.686Z,9.70
2022-09-27T01:42:21.962Z,9.68
2022-09-27T01:43:12.738Z,9.67
2022-09-27T01:44:06.828Z,9.68
2022-09-27T01:45:01.938Z,9.71
2022-09-27T01:45:57.056Z,9.71
2022-09-27T01:46:52.035Z,9.71
2022-09-27T01:47:47.123Z,9.67
2022-09-27T01:48:42.085Z,9.61
2022-09-27T01:49:37.206Z,9.59
2022-09-27T01:50:32.293Z,9.61
2022-09-27T01:51:32.655Z,9.63
2022-09-27T01:52:27.726Z,9.70
2022-09-27T01:53:23.095Z,9.69
2022-09-27T01:54:19.002Z,9.66
2022-09-27T01:55:14.068Z,9.67
2022-09-27T01:56:09.501Z,9.69
2022-09-27T01:57:05.537Z,9.68
2022-09-27T01:58:00.613Z,9.68
2022-09-27T01:58:56.550Z,9.70
2022-09-27T01:59:51.604Z,9.64
2022-09-27T02:00:46.939Z,9.62
2022-09-27T02:01:42.786Z,9.64
2022-09-27T02:02:37.801Z,9.65
2022-09-27T02:03:33.545Z,9.65
2022-09-27T02:04:28.867Z,9.67
2022-09-27T02:05:24.163Z,9.66
2022-09-27T02:06:19.973Z,9.64
2022-09-27T02:07:15.030Z,9.64
2022-09-27T02:08:10.106Z,9.65
2022-09-27T02:09:06.383Z,9.67
2022-09-27T02:10:01.476Z,9.68
2022-09-27T02:10:57.345Z,9.67
2022-09-27T02:11:56.066Z,9.70
2022-09-27T02:12:47.577Z,9.66
2022-09-27T02:13:42.638Z,9.67
2022-09-27T02:14:38.546Z,9.69
2022-09-27T02:15:33.726Z,9.72
2022-09-27T02:16:28.892Z,9.68
2022-09-27T02:17:24.539Z,9.68
2022-09-27T02:18:19.914Z,9.69
2022-09-27T02:19:15.707Z,9.71
2022-09-27T02:20:10.684Z,9.73
2022-09-27T02:21:06.155Z,9.71
2022-09-27T02:22:01.777Z,9.67
2022-09-27T02:22:57.130Z,9.67
2022-09-27T02:23:52.189Z,9.70
2022-09-27T02:24:48.602Z,9.72
2022-09-27T02:25:43.841Z,9.72
2022-09-27T02:26:39.781Z,9.73
2022-09-27T02:27:35.055Z,9.72
2022-09-27T02:28:30.268Z,9.72
2022-09-27T02:29:25.921Z,9.74
2022-09-27T02:30:21.113Z,9.76
2022-09-27T02:31:17.062Z,9.77
2022-09-27T02:32:12.110Z,9.78
2022-09-27T02:33:07.238Z,9.81
2022-09-27T02:34:03.650Z,9.75
2022-09-27T02:34:58.832Z,9.75
2022-09-27T02:35:54.713Z,9.81
2022-09-27T02:36:49.890Z,9.79
2022-09-27T02:37:44.999Z,9.76
2022-09-27T02:38:40.797Z,9.76
2022-09-27T02:39:35.884Z,9.77
2022-09-27T02:40:31.975Z,9.72
2022-09-27T02:41:27.008Z,9.71
2022-09-27T02:42:22.288Z,9.71
2022-09-27T02:43:17.917Z,9.73
2022-09-27T02:44:13.158Z,9.77
2022-09-27T02:45:08.456Z,9.80
2022-09-27T02:46:04.515Z,9.79
2022-09-27T02:46:59.723Z,9.78
2022-09-27T02:47:55.486Z,9.77
2022-09-27T02:48:50.592Z,9.76
2022-09-27T02:49:45.826Z,9.75
2022-09-27T02:50:40.875Z,9.77
2022-09-27T02:51:35.946Z,9.78
2022-09-27T02:52:30.983Z,9.77
2022-09-27T02:53:26.072Z,9.77
2022-09-27T02:54:21.131Z,9.79
2022-09-27T02:55:16.202Z,9.79
2022-09-27T02:56:11.321Z,9.79
2022-09-27T02:57:06.270Z,9.78
2022-09-27T02:58:01.374Z,9.76
2022-09-27T02:58:56.446Z,9.76
2022-09-27T02:59:51.510Z,9.79
2022-09-27T03:00:46.569Z,9.79
2022-09-27T03:01:41.623Z,9.80
2022-09-27T03:02:36.801Z,9.82
2022-09-27T03:03:31.786Z,9.81
2022-09-27T03:04:26.875Z,9.79
2022-09-27T03:05:21.926Z,9.84
2022-09-27T03:06:17.036Z,9.87
2022-09-27T03:07:12.080Z,9.90
2022-09-27T03:08:07.045Z,9.90
2022-09-27T03:09:02.115Z,9.93
2022-09-27T03:09:57.172Z,9.93
2022-09-27T03:10:52.238Z,9.92
2022-09-27T03:11:47.423Z,9.91
2022-09-27T03:12:42.476Z,9.93
2022-09-27T03:14:01.302Z,9.89
2022-09-27T03:14:36.525Z,9.84
2022-09-27T03:15:30.598Z,9.82
2022-09-27T03:16:25.855Z,9.81
2022-09-27T03:17:21.311Z,9.81
2022-09-27T03:18:16.489Z,9.83
2022-09-27T03:19:11.581Z,9.84
2022-09-27T03:20:06.780Z,9.84
2022-09-27T03:21:01.727Z,9.81
2022-09-27T03:21:57.739Z,9.79
2022-09-27T03:22:52.910Z,9.81
2022-09-27T03:23:48.680Z,9.79
2022-09-27T03:24:43.863Z,9.74
2022-09-27T03:25:39.080Z,9.74
2022-09-27T03:26:34.857Z,9.72
2022-09-27T03:27:29.952Z,9.72
2022-09-27T03:28:25.062Z,9.72
2022-09-27T03:29:21.529Z,9.70
2022-09-27T03:30:16.610Z,9.73
2022-09-27T03:31:12.431Z,9.67
2022-09-27T03:32:07.528Z,9.68
2022-09-27T03:33:02.739Z,9.72
2022-09-27T03:33:58.381Z,9.74
2022-09-27T03:34:53.755Z,9.78
2022-09-27T03:35:49.545Z,9.81
2022-09-27T03:36:44.786Z,9.84
2022-09-27T03:37:39.906Z,9.84
2022-09-27T03:38:35.536Z,9.83
2022-09-27T03:39:30.782Z,9.85
2022-09-27T03:40:26.036Z,9.87
2022-09-27T03:41:22.245Z,9.86
2022-09-27T03:42:17.543Z,9.85
2022-09-27T03:43:13.826Z,9.88
2022-09-27T03:44:08.913Z,9.93
2022-09-27T03:45:03.997Z,9.94
2022-09-27T03:45:59.821Z,9.93
2022-09-27T03:46:55.062Z,9.86
2022-09-27T03:47:50.999Z,9.86
2022-09-27T03:48:46.071Z,9.81
2022-09-27T03:49:41.184Z,9.80
2022-09-27T03:50:37.108Z,9.80
2022-09-27T03:51:32.322Z,9.86
2022-09-27T03:52:27.513Z,9.87
2022-09-27T03:53:23.864Z,9.85
2022-09-27T03:54:19.079Z,9.83
2022-09-27T03:55:15.279Z,9.82
2022-09-27T03:56:10.394Z,9.83
2022-09-27T03:57:05.619Z,9.83
2022-09-27T03:58:01.277Z,9.85
2022-09-27T03:58:56.403Z,9.89
2022-09-27T03:59:52.317Z,9.97
2022-09-27T04:00:47.474Z,10.03
2022-09-27T04:01:42.899Z,10.08
2022-09-27T04:02:38.591Z,10.08
2022-09-27T04:03:33.745Z,10.06
2022-09-27T04:04:29.183Z,10.03
2022-09-27T04:05:25.307Z,9.96
2022-09-27T04:06:20.457Z,9.90
2022-09-27T04:07:16.244Z,9.83
2022-09-27T04:08:11.582Z,9.79
2022-09-27T04:09:06.783Z,9.75
2022-09-27T04:10:02.513Z,9.73
2022-09-27T04:10:57.735Z,9.68
2022-09-27T04:11:53.536Z,9.67
2022-09-27T04:12:48.591Z,9.69
2022-09-27T04:13:44.075Z,9.68
2022-09-27T04:14:39.621Z,9.66
2022-09-27T04:15:34.783Z,9.69
2022-09-27T04:16:30.023Z,9.72
2022-09-27T04:17:26.351Z,9.75
2022-09-27T04:18:21.710Z,9.75
2022-09-27T04:19:17.538Z,9.74
2022-09-27T04:20:12.608Z,9.69
2022-09-27T04:21:07.725Z,9.68
2022-09-27T04:22:02.837Z,9.72
2022-09-27T04:22:59.643Z,9.73
2022-09-27T04:23:54.737Z,9.73
2022-09-27T04:24:49.848Z,9.70
2022-09-27T04:25:45.677Z,9.64
2022-09-27T04:26:40.897Z,9.64
2022-09-27T04:27:36.202Z,9.63
2022-09-27T04:28:32.391Z,9.61
2022-09-27T04:29:27.630Z,9.59
2022-09-27T04:30:23.350Z,9.57
2022-09-27T04:31:18.571Z,9.59
2022-09-27T04:32:13.799Z,9.59
2022-09-27T04:33:09.436Z,9.58
2022-09-27T04:34:04.657Z,9.59
2022-09-27T04:35:00.493Z,9.60
2022-09-27T04:35:55.569Z,9.61
2022-09-27T04:36:50.818Z,9.55
2022-09-27T04:37:46.499Z,9.53
2022-09-27T04:38:41.678Z,9.51
2022-09-27T04:39:36.903Z,9.49
2022-09-27T04:40:32.314Z,9.45
2022-09-27T04:41:27.530Z,9.36
2022-09-27T04:42:22.653Z,9.35
2022-09-27T04:43:17.795Z,9.33
2022-09-27T04:44:13.640Z,9.30
2022-09-27T04:45:08.906Z,9.30
2022-09-27T04:46:04.076Z,9.32
2022-09-27T04:46:59.907Z,9.33
2022-09-27T04:47:54.948Z,9.39
2022-09-27T04:48:50.338Z,9.43
2022-09-27T04:49:45.339Z,9.43
2022-09-27T04:50:40.427Z,9.41
2022-09-27T04:51:35.519Z,9.45
2022-09-27T04:52:30.641Z,9.45
2022-09-27T04:53:25.725Z,9.46
2022-09-27T04:54:20.856Z,9.42
2022-09-27T04:55:16.139Z,9.39
2022-09-27T04:56:11.406Z,9.34
2022-09-27T04:57:06.289Z,9.30
2022-09-27T04:58:03.062Z,9.28
2022-09-27T04:58:58.215Z,9.25
2022-09-27T04:59:54.117Z,9.25
2022-09-27T05:00:49.255Z,9.24
2022-09-27T05:01:44.499Z,9.22
2022-09-27T05:02:40.271Z,9.19
2022-09-27T05:03:35.606Z,9.17
2022-09-27T05:04:31.290Z,9.15
2022-09-27T05:05:26.599Z,9.12
2022-09-27T05:06:21.793Z,9.10
2022-09-27T05:07:17.653Z,9.10
2022-09-27T05:08:12.827Z,9.13
2022-09-27T05:09:08.062Z,9.12
2022-09-27T05:10:04.392Z,9.11
2022-09-27T05:10:59.584Z,9.14
2022-09-27T05:11:55.311Z,9.16
2022-09-27T05:12:50.555Z,9.14
2022-09-27T05:13:45.768Z,9.12
2022-09-27T05:14:41.719Z,9.09
2022-09-27T05:15:36.943Z,9.05
2022-09-27T05:16:34.038Z,9.06
2022-09-27T05:17:27.971Z,9.08
2022-09-27T05:18:23.238Z,9.10
2022-09-27T05:19:18.337Z,9.11
2022-09-27T05:20:13.347Z,9.11
2022-09-27T05:21:08.356Z,9.07
2022-09-27T05:22:03.378Z,9.05
2022-09-27T05:22:58.387Z,9.05
2022-09-27T05:23:53.536Z,9.08
2022-09-27T05:24:48.682Z,9.06
2022-09-27T05:25:43.779Z,9.04
2022-09-27T05:26:38.763Z,9.05
2022-09-27T05:27:33.877Z,9.05
2022-09-27T05:28:28.991Z,9.06
2022-09-27T05:29:24.046Z,9.09
2022-09-27T05:30:19.055Z,9.10
2022-09-27T05:31:14.236Z,9.14
2022-09-27T05:32:11.381Z,9.17
2022-09-27T05:33:06.386Z,9.16
2022-09-27T05:34:01.401Z,9.17
2022-09-27T05:34:56.389Z,9.18
2022-09-27T05:35:51.444Z,9.23
2022-09-27T05:36:46.471Z,9.24
2022-09-27T05:37:41.506Z,9.24
2022-09-27T05:38:36.553Z,9.24
2022-09-27T05:39:31.618Z,9.28
2022-09-27T05:40:40.899Z,9.29
2022-09-27T05:41:23.607Z,9.28
2022-09-27T05:42:17.869Z,9.28
2022-09-27T05:43:13.883Z,9.30
2022-09-27T05:44:09.267Z,9.34
2022-09-27T05:45:04.727Z,9.36
2022-09-27T05:46:00.401Z,9.40
2022-09-27T05:46:55.756Z,9.44
2022-09-27T05:47:51.639Z,9.50
2022-09-27T05:48:46.794Z,9.52
2022-09-27T05:49:42.225Z,9.55
2022-09-27T05:50:37.829Z,9.58
2022-09-27T05:51:33.192Z,9.63
2022-09-27T05:52:28.584Z,9.65
2022-09-27T05:53:24.910Z,9.64
2022-09-27T05:54:20.261Z,9.60
2022-09-27T05:55:16.168Z,9.55
2022-09-27T05:56:11.425Z,9.50
2022-09-27T05:57:06.999Z,9.50
2022-09-27T05:58:02.527Z,9.57
2022-09-27T05:58:57.931Z,9.55
2022-09-27T05:59:53.281Z,9.49
2022-09-27T06:00:48.631Z,9.43
2022-09-27T06:01:44.673Z,9.40
2022-09-27T06:02:39.984Z,9.41
2022-09-27T06:03:35.346Z,9.42
2022-09-27T06:04:31.172Z,9.42
2022-09-27T06:05:26.701Z,9.41
2022-09-27T06:06:22.508Z,9.37
2022-09-27T06:07:17.584Z,9.33
2022-09-27T06:08:13.148Z,9.31
2022-09-27T06:09:08.781Z,9.26
2022-09-27T06:10:04.207Z,9.23
2022-09-27T06:10:59.513Z,9.15
2022-09-27T06:11:55.896Z,9.09
2022-09-27T06:12:51.155Z,9.04
2022-09-27T06:13:47.118Z,9.03
2022-09-27T06:14:42.208Z,9.05
2022-09-27T06:15:37.755Z,9.04
2022-09-27T06:16:32.938Z,8.99
2022-09-27T06:17:28.201Z,8.98
2022-09-27T06:18:23.259Z,8.93
2022-09-27T06:19:22.625Z,8.96
2022-09-27T06:20:17.947Z,8.94
2022-09-27T06:21:13.363Z,8.91
2022-09-27T06:22:08.484Z,8.93
2022-09-27T06:23:05.119Z,8.91
2022-09-27T06:24:00.521Z,8.88
2022-09-27T06:24:55.786Z,8.87
2022-09-27T06:25:54.630Z,8.85
2022-09-27T06:26:49.970Z,8.81
2022-09-27T06:27:45.285Z,8.79
2022-09-27T06:28:40.720Z,8.74
2022-09-27T06:29:35.868Z,8.73
2022-09-27T06:30:30.847Z,8.71
2022-09-27T06:31:25.792Z,8.74
2022-09-27T06:32:20.791Z,8.74
2022-09-27T06:33:15.898Z,8.74
2022-09-27T06:34:11.387Z,8.79
2022-09-27T06:35:06.121Z,8.81
2022-09-27T06:36:01.223Z,8.79
2022-09-27T06:36:56.306Z,8.76
2022-09-27T06:37:51.420Z,8.74
2022-09-27T06:38:46.519Z,8.74
2022-09-27T06:39:41.527Z,8.76
2022-09-27T06:40:36.636Z,8.77
2022-09-27T06:41:31.724Z,8.79
2022-09-27T06:42:26.816Z,8.86
2022-09-27T06:43:21.945Z,8.89
2022-09-27T06:44:16.960Z,8.87
2022-09-27T06:45:11.904Z,8.87
2022-09-27T06:46:07.229Z,8.92
2022-09-27T06:47:02.224Z,8.95
2022-09-27T06:47:57.284Z,8.98
2022-09-27T06:48:52.417Z,9.11
2022-09-27T06:49:47.530Z,9.25
2022-09-27T06:50:44.524Z,9.29
2022-09-27T06:51:39.614Z,9.30
2022-09-27T06:52:34.820Z,9.30
2022-09-27T06:53:29.948Z,9.29
2022-09-27T06:54:26.039Z,9.26
2022-09-27T06:55:21.209Z,9.26
2022-09-27T06:56:16.286Z,9.21
2022-09-27T06:57:11.488Z,9.20
2022-09-27T06:58:06.461Z,9.20
2022-09-27T06:59:01.529Z,9.20
2022-09-27T06:59:56.487Z,9.17
2022-09-27T07:00:51.621Z,9.16
2022-09-27T07:01:46.788Z,9.14
2022-09-27T07:02:41.802Z,9.06
2022-09-27T07:03:40.260Z,9.01
2022-09-27T07:04:31.875Z,8.98
2022-09-27T07:05:26.977Z,8.94
2022-09-27T07:06:22.071Z,8.96
2022-09-27T07:07:17.345Z,9.01
2022-09-27T07:08:12.728Z,9.01
2022-09-27T07:09:08.114Z,9.04
2022-09-27T07:10:09.012Z,9.09
2022-09-27T07:10:59.894Z,9.10
2022-09-27T07:11:54.320Z,9.14
2022-09-27T07:12:49.699Z,9.15
2022-09-27T07:13:45.098Z,9.16
2022-09-27T07:14:40.811Z,9.12
2022-09-27T07:15:35.892Z,9.10
2022-09-27T07:16:31.124Z,9.14
2022-09-27T07:17:26.471Z,9.13
2022-09-27T07:18:21.881Z,9.20
2022-09-27T07:19:17.281Z,9.23
2022-09-27T07:20:12.920Z,9.28
2022-09-27T07:21:08.261Z,9.37
2022-09-27T07:22:03.730Z,9.43
2022-09-27T07:22:59.279Z,9.47
2022-09-27T07:23:54.539Z,9.54
2022-09-27T07:24:49.966Z,9.66
2022-09-27T07:25:45.421Z,9.72
2022-09-27T07:26:40.890Z,9.77
2022-09-27T07:27:38.615Z,9.87
2022-09-27T07:28:31.726Z,10.00
2022-09-27T07:29:27.483Z,10.12
2022-09-27T07:30:22.659Z,10.18
2022-09-27T07:31:17.714Z,10.30
2022-09-27T07:32:12.686Z,10.23
2022-09-27T07:33:07.759Z,10.17
2022-09-27T07:34:02.857Z,10.16
2022-09-27T07:34:57.908Z,10.12
2022-09-27T07:35:53.042Z,10.12
2022-09-27T07:36:48.099Z,10.11
2022-09-27T07:37:43.226Z,10.16
2022-09-27T07:38:38.315Z,10.20
2022-09-27T07:39:35.284Z,10.34
2022-09-27T07:40:30.377Z,10.44
2022-09-27T07:41:25.430Z,10.51
2022-09-27T07:42:20.511Z,10.58
2022-09-27T07:43:16.065Z,10.61
2022-09-27T07:44:11.497Z,10.66
2022-09-27T07:45:09.104Z,10.79
2022-09-27T07:46:02.582Z,10.96
2022-09-27T07:46:58.161Z,11.22
2022-09-27T07:47:53.643Z,11.39
2022-09-27T07:48:49.133Z,11.47
2022-09-27T07:49:44.745Z,11.50
2022-09-27T07:50:40.186Z,11.50
2022-09-27T07:51:35.770Z,11.44
2022-09-27T07:52:31.095Z,11.40
2022-09-27T07:53:26.542Z,11.26
2022-09-27T07:54:22.143Z,11.12
2022-09-27T07:55:17.846Z,10.90
2022-09-27T07:56:12.729Z,10.79
2022-09-27T07:57:07.780Z,10.70
2022-09-27T07:58:02.890Z,10.73
2022-09-27T07:58:57.849Z,10.75
2022-09-27T07:59:52.956Z,10.69
2022-09-27T08:00:48.062Z,10.64
2022-09-27T08:01:42.976Z,10.65
2022-09-27T08:02:40.397Z,10.59
2022-09-27T08:03:35.611Z,10.54
2022-09-27T08:04:30.663Z,10.63
2022-09-27T08:05:25.742Z,10.79
2022-09-27T08:06:20.836Z,10.93
2022-09-27T08:07:15.884Z,11.08
2022-09-27T08:08:10.922Z,11.00
2022-09-27T08:09:06.159Z,10.99
2022-09-27T08:10:02.088Z,11.07
2022-09-27T08:10:57.583Z,11.15
2022-09-27T08:11:53.081Z,11.24
2022-09-27T08:12:48.585Z,11.31
2022-09-27T08:13:44.172Z,11.32
2022-09-27T08:14:45.010Z,11.31
2022-09-27T08:15:35.889Z,11.17
2022-09-27T08:16:31.128Z,11.04
2022-09-27T08:17:26.424Z,10.95
2022-09-27T08:18:21.951Z,10.88
2022-09-27T08:19:17.104Z,10.84
2022-09-27T08:20:12.053Z,10.70
2022-09-27T08:21:07.078Z,10.55
2022-09-27T08:22:02.082Z,10.48
2022-09-27T08:22:57.098Z,10.46
2022-09-27T08:23:52.149Z,10.39
2022-09-27T08:24:47.145Z,10.32
2022-09-27T08:25:44.065Z,10.28
2022-09-27T08:26:39.082Z,10.27
2022-09-27T08:27:34.104Z,10.30
2022-09-27T08:28:29.287Z,10.37
2022-09-27T08:29:25.393Z,10.39
2022-09-27T08:30:20.815Z,10.45
2022-09-27T08:31:16.188Z,10.47
2022-09-27T08:32:11.666Z,10.48
2022-09-27T08:33:07.439Z,10.48
2022-09-27T08:34:02.917Z,10.51
2022-09-27T08:34:58.285Z,10.54
2022-09-27T08:35:53.936Z,10.58
2022-09-27T08:36:49.403Z,10.54
2022-09-27T08:37:44.767Z,10.41
2022-09-27T08:38:40.287Z,10.37
2022-09-27T08:39:35.897Z,10.41
2022-09-27T08:40:31.587Z,10.49
2022-09-27T08:41:26.823Z,10.57
2022-09-27T08:42:22.463Z,10.65
2022-09-27T08:43:17.972Z,10.73
2022-09-27T08:44:13.656Z,10.81
2022-09-27T08:45:09.056Z,10.79
2022-09-27T08:46:04.568Z,10.83
2022-09-27T08:47:00.095Z,10.91
2022-09-27T08:47:55.678Z,10.87
2022-09-27T08:48:51.635Z,10.82
2022-09-27T08:49:46.466Z,10.81
2022-09-27T08:50:42.084Z,10.80
2022-09-27T08:51:37.116Z,10.76
2022-09-27T08:52:32.210Z,10.76
2022-09-27T08:53:27.261Z,10.75
2022-09-27T08:54:22.248Z,10.74
2022-09-27T08:55:17.280Z,10.65
2022-09-27T08:56:12.278Z,10.60
2022-09-27T08:57:07.356Z,10.62
2022-09-27T08:58:02.397Z,10.67
2022-09-27T08:58:57.456Z,10.68
2022-09-27T08:59:52.554Z,10.75
2022-09-27T09:00:47.677Z,10.76
2022-09-27T09:01:42.640Z,10.76
2022-09-27T09:02:37.781Z,10.81
2022-09-27T09:03:32.825Z,10.82
2022-09-27T09:04:27.972Z,10.79
2022-09-27T09:05:23.022Z,10.78
2022-09-27T09:06:18.078Z,10.83
2022-09-27T09:07:13.297Z,10.85
2022-09-27T09:08:08.354Z,10.88
2022-09-27T09:09:03.463Z,10.92
2022-09-27T09:09:58.583Z,11.02
2022-09-27T09:10:53.703Z,11.12
2022-09-27T09:11:48.809Z,11.20
2022-09-27T09:12:43.890Z,11.21
2022-09-27T09:13:38.996Z,11.24
2022-09-27T09:14:34.612Z,11.25
2022-09-27T09:15:30.123Z,11.30
2022-09-27T09:16:25.909Z,11.37
2022-09-27T09:17:21.118Z,11.47
2022-09-27T09:18:16.653Z,11.57
2022-09-27T09:19:12.077Z,11.61
2022-09-27T09:20:07.526Z,11.87
2022-09-27T09:21:02.756Z,12.41
2022-09-27T09:21:58.336Z,12.90
2022-09-27T09:22:53.843Z,13.36
2022-09-27T09:23:49.117Z,13.38
2022-09-27T09:24:44.777Z,13.26
2022-09-27T09:25:40.194Z,13.17
2022-09-27T09:26:35.841Z,12.99
2022-09-27T09:27:32.273Z,12.91
2022-09-27T09:28:27.674Z,12.79
2022-09-27T09:29:23.073Z,12.65
2022-09-27T09:30:18.722Z,12.28
2022-09-27T09:31:14.056Z,12.05
2022-09-27T09:32:09.534Z,11.95
2022-09-27T09:33:04.562Z,11.87
2022-09-27T09:33:59.611Z,11.73
2022-09-27T09:34:54.633Z,11.67
2022-09-27T09:35:49.665Z,11.59
2022-09-27T09:36:44.772Z,11.56
2022-09-27T09:37:39.730Z,11.45
2022-09-27T09:38:34.801Z,11.40
2022-09-27T09:39:29.878Z,11.39
2022-09-27T09:40:28.830Z,11.32
2022-09-27T09:41:23.789Z,11.21
2022-09-27T09:42:19.009Z,11.10
2022-09-27T09:43:14.279Z,11.43
2022-09-27T09:44:09.244Z,11.92
2022-09-27T09:45:04.299Z,12.38
2022-09-27T09:45:59.320Z,12.34
2022-09-27T09:46:54.295Z,12.28
2022-09-27T09:47:49.501Z,12.11
2022-09-27T09:48:44.898Z,12.06
2022-09-27T09:49:40.456Z,12.42
2022-09-27T09:50:36.010Z,12.86
2022-09-27T09:51:31.411Z,13.05
2022-09-27T09:52:27.085Z,13.12
2022-09-27T09:53:22.648Z,13.32
2022-09-27T09:54:17.989Z,13.55
2022-09-27T09:55:13.524Z,13.94
2022-09-27T09:56:08.953Z,14.31
2022-09-27T09:57:04.315Z,14.44
2022-09-27T09:57:59.854Z,14.81
2022-09-27T09:58:55.386Z,15.28
2022-09-27T09:59:50.783Z,15.74
2022-09-27T10:00:46.196Z,15.86
2022-09-27T10:01:41.737Z,15.77
2022-09-27T10:02:37.377Z,15.34
2022-09-27T10:03:36.701Z,14.81
2022-09-27T10:04:32.106Z,14.57
2022-09-27T10:05:27.396Z,14.83
2022-09-27T10:06:23.296Z,14.92
2022-09-27T10:07:18.486Z,14.78
2022-09-27T10:08:14.003Z,14.83
2022-09-27T10:09:09.501Z,14.63
2022-09-27T10:10:04.943Z,14.18
2022-09-27T10:11:00.222Z,13.84
2022-09-27T10:11:55.817Z,13.24
2022-09-27T10:12:51.195Z,12.63
2022-09-27T10:13:46.634Z,12.38
2022-09-27T10:14:41.907Z,12.25
2022-09-27T10:15:37.496Z,11.92
2022-09-27T10:16:33.151Z,11.55
2022-09-27T10:17:28.048Z,11.26
2022-09-27T10:18:23.073Z,11.03
2022-09-27T10:19:18.367Z,10.80
2022-09-27T10:20:13.461Z,10.60
2022-09-27T10:21:08.460Z,10.40
2022-09-27T10:22:03.537Z,10.32
2022-09-27T10:22:58.608Z,10.25
2022-09-27T10:23:53.756Z,10.12
2022-09-27T10:24:48.786Z,10.02
2022-09-27T10:25:43.976Z,9.92
2022-09-27T10:26:40.293Z,9.83
2022-09-27T10:27:35.421Z,9.77
2022-09-27T10:28:30.380Z,9.74
2022-09-27T10:29:25.498Z,9.66
2022-09-27T10:30:21.590Z,9.65
2022-09-27T10:31:17.103Z,9.70
2022-09-27T10:32:12.249Z,9.74
2022-09-27T10:33:07.633Z,9.74
2022-09-27T10:34:03.415Z,9.65
2022-09-27T10:34:58.916Z,9.58
2022-09-27T10:35:54.311Z,9.53
2022-09-27T10:36:49.548Z,9.50
2022-09-27T10:37:44.910Z,9.45
2022-09-27T10:38:40.320Z,9.53
2022-09-27T10:39:35.747Z,9.59
2022-09-27T10:40:31.220Z,9.57
2022-09-27T10:41:26.856Z,9.61
2022-09-27T10:42:22.266Z,9.67
2022-09-27T10:43:17.612Z,9.82
2022-09-27T10:44:12.822Z,10.04
2022-09-27T10:45:08.236Z,10.36
2022-09-27T10:46:03.849Z,10.57
2022-09-27T10:46:59.019Z,10.72
2022-09-27T10:47:54.403Z,10.86
2022-09-27T10:48:49.954Z,11.03
2022-09-27T10:49:46.229Z,11.14
2022-09-27T10:50:59.181Z,11.20
2022-09-27T10:51:38.410Z,11.02
2022-09-27T10:52:32.816Z,10.98
2022-09-27T10:53:28.329Z,11.02
2022-09-27T10:54:23.858Z,11.14
2022-09-27T10:55:19.412Z,11.23
2022-09-27T10:56:14.964Z,11.37
2022-09-27T10:57:10.345Z,11.56
2022-09-27T10:58:05.803Z,11.68
2022-09-27T10:59:00.911Z,11.85
2022-09-27T10:59:56.016Z,11.98
2022-09-27T11:00:51.087Z,12.02
2022-09-27T11:01:46.082Z,12.08
2022-09-27T11:02:41.117Z,12.17
2022-09-27T11:03:36.099Z,12.19
2022-09-27T11:04:31.332Z,12.15
2022-09-27T11:05:27.128Z,12.06
2022-09-27T11:06:22.325Z,12.16
2022-09-27T11:07:17.315Z,12.18
2022-09-27T11:08:12.399Z,12.17
2022-09-27T11:09:08.426Z,12.04
2022-09-27T11:10:04.047Z,12.00
2022-09-27T11:10:59.697Z,12.00
2022-09-27T11:11:54.821Z,11.94
2022-09-27T11:12:50.343Z,12.03
2022-09-27T11:13:45.589Z,12.11
2022-09-27T11:14:41.041Z,12.15
2022-09-27T11:15:36.589Z,12.10
2022-09-27T11:16:32.088Z,12.27
2022-09-27T11:17:27.481Z,12.43
2022-09-27T11:18:22.913Z,12.62
2022-09-27T11:19:18.534Z,12.77
2022-09-27T11:20:14.034Z,13.05
2022-09-27T11:21:09.542Z,13.26
2022-09-27T11:22:04.758Z,13.49
2022-09-27T11:22:59.668Z,13.42
2022-09-27T11:23:54.756Z,13.28
2022-09-27T11:24:49.838Z,13.39
2022-09-27T11:25:44.926Z,13.50
2022-09-27T11:26:40.219Z,13.61
2022-09-27T11:27:35.045Z,14.01
2022-09-27T11:28:30.118Z,14.38
2022-09-27T11:29:25.217Z,14.63
2022-09-27T11:30:20.290Z,14.05
2022-09-27T11:31:19.423Z,13.61
2022-09-27T11:32:10.599Z,14.04
2022-09-27T11:33:05.469Z,14.71
2022-09-27T11:34:00.589Z,14.40
2022-09-27T11:34:55.675Z,14.08
2022-09-27T11:35:50.772Z,14.48
2022-09-27T11:36:46.006Z,14.65
2022-09-27T11:37:42.854Z,14.75
2022-09-27T11:38:54.142Z,14.56
2022-09-27T11:39:34.591Z,14.68
2022-09-27T11:40:29.007Z,14.69
2022-09-27T11:41:26.495Z,14.50
2022-09-27T11:42:21.972Z,14.12
2022-09-27T11:43:17.610Z,13.80
2022-09-27T11:44:13.120Z,13.67
2022-09-27T11:45:31.926Z,13.64
2022-09-27T11:46:26.587Z,13.59
2022-09-27T11:47:00.727Z,13.85
2022-09-27T11:47:55.112Z,13.74
2022-09-27T11:48:50.680Z,13.60
2022-09-27T11:49:46.221Z,14.02
2022-09-27T11:50:41.731Z,14.53
2022-09-27T11:51:37.254Z,14.76
2022-09-27T11:52:32.789Z,15.09
2022-09-27T11:53:28.177Z,15.26
2022-09-27T11:54:23.687Z,15.54
2022-09-27T11:55:18.758Z,15.80
2022-09-27T11:56:13.907Z,16.03
2022-09-27T11:57:08.897Z,16.35
2022-09-27T11:58:03.978Z,16.32
2022-09-27T11:58:59.018Z,15.86
2022-09-27T11:59:53.998Z,15.57
2022-09-27T12:00:49.067Z,15.24
2022-09-27T12:01:44.155Z,14.75
2022-09-27T12:02:39.327Z,14.35
2022-09-27T12:03:34.243Z,14.71
2022-09-27T12:04:30.412Z,14.55
2022-09-27T12:05:25.409Z,14.40